TKPK METAR and TAF | Updated Today

TKPK METAR

Robert L. Bradshaw International Airport

Observation time: 26 min. ago

TKPK 291100Z 05011KT 9999 BKN018 26/23 Q1016

Need help? Read our tutorial on how to read METARs or read the parsed version below.

Robert L. Bradshaw International Airport (TKPK) METAR

  • Weather conditions on Sun, 29 May 2022 11:00:00 +0000 (26 min. ago):
  • Present conditions: Dry
  • Clouds: Broken sky at 549 meters
  • Visibility: Greater than 10 km
  • Wind: 50 degrees at 11 knots
  • Temperature: 26 celsius
  • Dew point: 23 celsius
  • Pressure: 1016 millibars
  • Remarks: None


Useful to know...

TKPK TAF

Robert L. Bradshaw International Airport

TAF TKPK 281700Z 2818/2918 09012KT 9999 SCT019 BKN038
Observation time: 18:26 hr. ago
Need help? Read our tutorial on how to read TAFs or read the parsed version below.

Parsed version of TAF for Robert L. Bradshaw International Airport (TKPK)

  • From 28 May at 18:00 UTC, to day 29 of the month at 18:00 UTC
  • Clouds: Scattered at 579 meters; broken sky at 1158 meters
  • Visibility: Greater than 10 km
  • Wind: 90 degrees at 12